createdAt,value
2019-05-05T00:01:26.438Z,5.47
2019-05-05T00:06:29.467Z,5.45
2019-05-05T00:11:49.420Z,5.39
2019-05-05T00:16:57.265Z,5.33
2019-05-05T00:22:00.011Z,5.25
2019-05-05T00:27:04.319Z,5.25
2019-05-05T00:32:07.250Z,5.22
2019-05-05T00:37:09.980Z,5.13
2019-05-05T00:42:12.745Z,5.06
2019-05-05T00:47:54.435Z,5.14
2019-05-05T00:52:57.306Z,5.18
2019-05-05T00:58:00.026Z,5.10
2019-05-05T01:03:04.714Z,5.11
2019-05-05T01:08:14.390Z,5.15
2019-05-05T01:13:17.196Z,5.20
2019-05-05T01:18:20.027Z,5.18
2019-05-05T01:23:24.410Z,5.19
2019-05-05T01:28:28.206Z,5.21
2019-05-05T01:33:36.449Z,5.25
2019-05-05T01:38:44.931Z,5.17
2019-05-05T01:43:47.710Z,5.18
2019-05-05T01:48:50.417Z,5.20
2019-05-05T01:53:54.573Z,5.16
2019-05-05T01:58:57.744Z,5.15
2019-05-05T02:04:00.763Z,5.32
2019-05-05T02:09:05.948Z,5.40
2019-05-05T02:14:08.890Z,5.35
2019-05-05T02:19:11.624Z,5.32
2019-05-05T02:24:14.533Z,5.38
2019-05-05T02:29:24.737Z,5.19
2019-05-05T02:34:30.488Z,5.06
2019-05-05T02:39:35.269Z,5.32
2019-05-05T02:44:39.053Z,5.40
2019-05-05T02:49:45.441Z,5.80
2019-05-05T02:54:49.615Z,6.05
2019-05-05T03:00:06.025Z,6.21
2019-05-05T03:05:09.163Z,6.35
2019-05-05T03:10:13.972Z,6.44
2019-05-05T03:15:36.495Z,6.53
2019-05-05T03:20:39.195Z,6.53
2019-05-05T03:25:44.039Z,6.49
2019-05-05T03:30:47.068Z,6.45
2019-05-05T03:35:49.921Z,6.37
2019-05-05T03:40:54.641Z,6.17
2019-05-05T03:45:59.916Z,6.02
2019-05-05T03:51:17.467Z,5.98
2019-05-05T03:56:07.801Z,5.94
2019-05-05T04:01:51.696Z,5.84
2019-05-05T04:06:54.545Z,5.76
2019-05-05T04:11:57.306Z,5.70
2019-05-05T04:17:37.950Z,5.66
2019-05-05T04:22:40.656Z,5.66
2019-05-05T04:27:44.473Z,5.62
2019-05-05T04:32:47.519Z,5.62
2019-05-05T04:37:50.288Z,5.66
2019-05-05T04:42:54.693Z,5.67
2019-05-05T04:48:04.341Z,5.72
2019-05-05T04:53:10.769Z,5.83
2019-05-05T04:58:13.753Z,5.93
2019-05-05T05:03:25.221Z,6.08
2019-05-05T05:08:27.942Z,6.15
2019-05-05T05:13:30.750Z,6.21
2019-05-05T05:18:34.418Z,6.28
2019-05-05T05:23:37.444Z,6.52
2019-05-05T05:33:47.751Z,6.82
2019-05-05T05:38:54.227Z,6.96
2019-05-05T05:44:07.994Z,7.05
2019-05-05T05:49:34.644Z,7.27
2019-05-05T05:54:37.802Z,7.40
2019-05-05T05:59:40.670Z,7.61
2019-05-05T06:04:44.647Z,7.70
2019-05-05T06:09:47.597Z,7.90
2019-05-05T06:14:50.761Z,8.01
2019-05-05T06:19:54.378Z,8.12
2019-05-05T06:24:57.156Z,8.26
2019-05-05T06:29:59.903Z,8.36
2019-05-05T06:35:04.417Z,8.62
2019-05-05T06:40:09.629Z,8.83
2019-05-05T06:45:24.107Z,9.07
2019-05-05T06:50:27.096Z,9.25
2019-05-05T06:55:30.181Z,9.60
2019-05-05T07:00:34.674Z,9.91
2019-05-05T07:05:37.590Z,10.21
2019-05-05T07:10:40.753Z,10.31
2019-05-05T07:15:44.720Z,10.58
2019-05-05T07:20:47.911Z,10.93
2019-05-05T07:25:50.697Z,10.95
2019-05-05T07:30:54.743Z,11.16
2019-05-05T07:36:16.684Z,11.23
2019-05-05T07:41:20.428Z,11.11
2019-05-05T07:46:24.257Z,11.48
2019-05-05T07:51:28.733Z,12.53
2019-05-05T07:56:34.215Z,12.85
2019-05-05T08:01:37.497Z,13.18
2019-05-05T08:06:40.767Z,13.20
2019-05-05T08:11:43.930Z,13.42
2019-05-05T08:17:00.216Z,13.71
2019-05-05T08:22:03.685Z,13.95
2019-05-05T08:27:24.894Z,14.21
2019-05-05T08:32:32.767Z,14.40
2019-05-05T08:37:35.304Z,14.51
2019-05-05T08:42:38.029Z,14.58
2019-05-05T08:47:40.791Z,14.65
2019-05-05T08:52:44.444Z,14.68
2019-05-05T08:57:48.410Z,15.38
2019-05-05T09:02:51.243Z,16.05
2019-05-05T09:08:01.315Z,15.46
2019-05-05T09:13:04.111Z,14.79
2019-05-05T09:18:06.856Z,14.17
2019-05-05T09:23:09.646Z,14.13
2019-05-05T09:28:34.019Z,13.85
2019-05-05T09:33:36.645Z,14.31
2019-05-05T09:38:39.419Z,14.83
2019-05-05T09:43:42.161Z,15.06
2019-05-05T09:48:44.938Z,14.67
2019-05-05T09:53:47.656Z,14.52
2019-05-05T09:58:50.390Z,14.75
2019-05-05T10:03:55.988Z,14.90
2019-05-05T10:08:58.721Z,14.85
2019-05-05T10:14:01.453Z,14.90
2019-05-05T10:19:04.566Z,15.50
2019-05-05T10:24:27.637Z,15.70
2019-05-05T10:29:20.167Z,16.05
2019-05-05T10:34:24.193Z,16.41
2019-05-05T10:39:40.880Z,16.99
2019-05-05T10:44:44.593Z,17.69
2019-05-05T10:49:47.467Z,16.65
2019-05-05T10:54:50.171Z,15.99
2019-05-05T10:59:53.979Z,15.64
2019-05-05T11:04:56.767Z,15.77
2019-05-05T11:09:59.896Z,15.86
2019-05-05T11:15:04.072Z,16.24
2019-05-05T11:20:07.696Z,16.39
2019-05-05T11:25:11.014Z,16.88
2019-05-05T11:30:21.017Z,16.73
2019-05-05T11:35:25.500Z,17.21
2019-05-05T11:40:31.507Z,17.79
2019-05-05T11:45:34.493Z,16.27
2019-05-05T11:50:37.284Z,14.96
2019-05-05T11:55:40.093Z,14.24
2019-05-05T12:00:43.823Z,14.11
2019-05-05T12:05:46.874Z,14.44
2019-05-05T12:10:59.867Z,14.97
2019-05-05T12:16:05.199Z,15.04
2019-05-05T12:21:07.986Z,15.17
2019-05-05T12:26:30.336Z,15.72
2019-05-05T12:31:34.018Z,15.71
2019-05-05T12:36:36.878Z,16.30
2019-05-05T12:41:39.619Z,16.58
2019-05-05T12:46:56.089Z,16.84
2019-05-05T12:51:58.886Z,16.40
2019-05-05T12:57:01.624Z,15.56
2019-05-05T13:02:05.095Z,15.38
2019-05-05T13:07:08.342Z,15.85
2019-05-05T13:12:11.821Z,16.42
2019-05-05T13:17:14.567Z,16.35
2019-05-05T13:22:30.016Z,15.52
2019-05-05T13:27:35.711Z,15.34
2019-05-05T13:32:38.436Z,15.39
2019-05-05T13:37:41.212Z,15.92
2019-05-05T13:42:44.047Z,15.70
2019-05-05T13:47:47.797Z,15.59
2019-05-05T13:52:50.659Z,15.35
2019-05-05T13:57:54.816Z,15.72
2019-05-05T14:02:57.706Z,15.88
2019-05-05T14:08:00.450Z,15.75
2019-05-05T14:13:03.783Z,16.16
2019-05-05T14:18:06.706Z,16.10
2019-05-05T14:23:09.636Z,16.59
2019-05-05T14:28:14.151Z,16.73
2019-05-05T14:33:20.178Z,16.88
2019-05-05T14:38:35.038Z,16.80
2019-05-05T14:43:39.140Z,16.86
2019-05-05T14:48:43.947Z,17.19
2019-05-05T14:53:46.561Z,17.31
2019-05-05T14:58:49.300Z,17.15
2019-05-05T15:03:53.527Z,16.62
2019-05-05T15:09:13.864Z,15.46
2019-05-05T15:14:16.827Z,15.02
2019-05-05T15:19:19.550Z,14.73
2019-05-05T15:24:24.501Z,14.89
2019-05-05T15:29:27.269Z,15.33
2019-05-05T15:34:29.994Z,15.98
2019-05-05T15:39:33.639Z,16.55
2019-05-05T15:44:36.473Z,16.57
2019-05-05T15:49:39.203Z,16.33
2019-05-05T15:54:41.907Z,15.76
2019-05-05T15:59:44.650Z,15.30
2019-05-05T16:04:47.659Z,14.92
2019-05-05T16:09:50.507Z,14.75
2019-05-05T16:15:17.787Z,14.42
2019-05-05T16:20:26.275Z,14.35
2019-05-05T16:25:28.987Z,14.33
2019-05-05T16:30:33.585Z,14.23
2019-05-05T16:35:36.339Z,14.49
2019-05-05T16:40:39.093Z,15.12
2019-05-05T16:45:41.847Z,15.47
2019-05-05T16:50:44.559Z,15.37
2019-05-05T16:55:53.934Z,15.10
2019-05-05T17:00:56.833Z,14.88
2019-05-05T17:05:59.633Z,14.58
2019-05-05T17:11:02.367Z,14.47
2019-05-05T17:16:19.741Z,14.08
2019-05-05T17:21:29.949Z,13.83
2019-05-05T17:26:32.781Z,13.91
2019-05-05T17:31:35.562Z,13.68
2019-05-05T17:36:39.852Z,13.62
2019-05-05T17:42:01.519Z,13.46
2019-05-05T17:47:13.859Z,13.60
2019-05-05T17:52:35.191Z,13.57
2019-05-05T17:57:38.002Z,13.46
2019-05-05T18:02:40.751Z,13.32
2019-05-05T18:07:45.845Z,13.01
2019-05-05T18:13:06.648Z,12.90
2019-05-05T18:18:09.420Z,12.65
2019-05-05T18:23:13.861Z,12.60
2019-05-05T18:28:19.900Z,12.52
2019-05-05T18:33:21.542Z,12.49
2019-05-05T18:38:24.383Z,12.44
2019-05-05T18:43:51.043Z,12.41
2019-05-05T18:48:54.515Z,12.36
2019-05-05T18:53:57.583Z,12.20
2019-05-05T18:59:00.511Z,12.12
2019-05-05T19:04:34.930Z,12.13
2019-05-05T19:09:50.351Z,11.92
2019-05-05T19:14:44.258Z,11.84
2019-05-05T19:19:51.406Z,11.75
2019-05-05T19:24:54.855Z,11.65
2019-05-05T19:29:57.723Z,11.54
2019-05-05T19:35:00.478Z,11.45
2019-05-05T19:40:04.315Z,11.23
2019-05-05T19:45:09.125Z,11.06
2019-05-05T19:50:33.737Z,11.02
2019-05-05T19:55:36.595Z,10.96
2019-05-05T20:00:39.328Z,10.84
2019-05-05T20:05:44.027Z,10.91
2019-05-05T20:10:46.918Z,10.93
2019-05-05T20:16:04.366Z,10.81
2019-05-05T20:21:07.493Z,10.70
2019-05-05T20:26:10.541Z,10.76
2019-05-05T20:31:14.230Z,10.88
2019-05-05T20:36:20.777Z,11.04
2019-05-05T20:41:24.913Z,11.01
2019-05-05T20:46:27.878Z,10.91
2019-05-05T20:51:30.683Z,10.72
2019-05-05T20:56:33.891Z,10.62
2019-05-05T21:01:36.923Z,10.47
2019-05-05T21:06:39.749Z,10.21
2019-05-05T21:11:43.749Z,10.13
2019-05-05T21:16:46.607Z,9.97
2019-05-05T21:21:54.299Z,9.98
2019-05-05T21:26:59.548Z,9.93
2019-05-05T21:32:04.547Z,9.85
2019-05-05T21:37:07.016Z,9.82
2019-05-05T21:42:09.918Z,9.86
2019-05-05T21:47:14.147Z,9.78
2019-05-05T21:52:24.777Z,9.72
2019-05-05T21:57:47.261Z,9.66
2019-05-05T22:02:50.114Z,9.58
2019-05-05T22:07:53.919Z,9.53
2019-05-05T22:12:56.762Z,9.41
2019-05-05T22:17:59.511Z,9.29
2019-05-05T22:23:03.749Z,9.16
2019-05-05T22:28:06.659Z,9.16
2019-05-05T22:33:09.402Z,9.03
2019-05-05T22:38:13.740Z,9.00
2019-05-05T22:43:16.847Z,8.98
2019-05-05T22:48:19.597Z,8.91
2019-05-05T22:53:23.951Z,8.86
2019-05-05T22:58:26.873Z,8.80
2019-05-05T23:03:39.181Z,8.67
2019-05-05T23:08:42.017Z,8.68
2019-05-05T23:13:44.801Z,8.60
2019-05-05T23:18:47.582Z,8.64
2019-05-05T23:24:08.800Z,8.58
2019-05-05T23:29:11.677Z,8.58
2019-05-05T23:34:14.790Z,8.49
2019-05-05T23:39:17.626Z,8.43
2019-05-05T23:44:20.488Z,8.31
2019-05-05T23:49:24.193Z,8.18
2019-05-05T23:54:27.254Z,8.05
2019-05-05T23:59:29.970Z,7.99
